Cle Elum, Washington
Current Conditions -  °F | °C
As of 2:53 AM on Monday 22 Dec 2014 (Local Time) from KELN Reporting Station
Few Clouds Few Clouds  
Wind Chill: 37°   Ceiling: Unl
Heat Index: 37°   Visibility: 10mi
Dew Point: 33°   Wind: 3mph
Humidity: 86%   Direction: 310°NW
Pressure: 30.08"   Gusts: NA
Location:  47.2°N, 120.94°W
Report Text: KELN 221053Z AUTO 31003KT 10SM FEW100 03/01 A3008 RMK AO2 SLP194 T00280006
Loading
Personal Weather Stations






























Interactive Weather Map New forecast layout! Learn more

10-Day Weather Forecast

Advertisements
Track Severe Weather on mobile